Flight Briefing for CMB811

Departure Arrival
Daniel K Inouye International Airport (PHNL)
Click to view FAA NOTAMS
Bucholz AAF Airport (PKWA)
Click to view FAA NOTAMS
Departure Time Arrival Time
N/A N/A
Aircraft Distance
B757-200SF 2127nm
Departure METAR Arrival METAR
PHNL 200753Z 00000KT 10SM FEW030 SCT039 BKN055 24/17 A3007 RMK AO2 SLP183 T02390167 PKWA 200840Z AUTO 09012KT 10SM SCT022 28/24 A2984 RMK AO2 T02780235
Suggested Route
OPIHI2 CHOKO R584 MCFLY R584 MAZZA 1000N/17300E NDJ


View recent IFR Routes data
Notes
USTRANSCOM CONTRACT FLIGHT | LIMITED FUEL AVBL TO NON-DOD ACFT, TANKERING RCMD

Charts and Procedures

Charts for PHNL
No chart available
Charts for PKWA
No chart available

Windy.com Weather Map